createdAt,value
2018-12-09T00:00:16.182Z,99797.33
2018-12-09T00:01:16.675Z,99797.34
2018-12-09T00:02:16.085Z,99797.94
2018-12-09T00:03:17.392Z,99797.98
2018-12-09T00:04:17.755Z,99796.69
2018-12-09T00:05:18.159Z,99796.20
2018-12-09T00:06:18.544Z,99796.07
2018-12-09T00:07:18.937Z,99794.77
2018-12-09T00:08:19.252Z,99793.86
2018-12-09T00:09:19.860Z,99794.06
2018-12-09T00:10:20.221Z,99793.70
2018-12-09T00:11:20.602Z,99793.66
2018-12-09T00:12:20.919Z,99794.02
2018-12-09T00:13:21.298Z,99794.48
2018-12-09T00:14:21.630Z,99795.46
2018-12-09T00:15:22.098Z,99797.23
2018-12-09T00:16:22.494Z,99796.74
2018-12-09T00:17:22.817Z,99796.54
2018-12-09T00:18:23.137Z,99796.17
2018-12-09T00:19:23.501Z,99795.72
2018-12-09T00:20:24.167Z,99795.17
2018-12-09T00:21:23.461Z,99794.69
2018-12-09T00:22:25.019Z,99794.81
2018-12-09T00:23:25.587Z,99795.12
2018-12-09T00:24:25.960Z,99794.84
2018-12-09T00:25:26.491Z,99794.89
2018-12-09T00:26:26.957Z,99795.29
2018-12-09T00:27:26.046Z,99796.84
2018-12-09T00:28:27.344Z,99796.48
2018-12-09T00:29:27.600Z,99798.08
2018-12-09T00:30:27.944Z,99797.59
2018-12-09T00:31:28.469Z,99798.38
2018-12-09T00:31:36.517Z,99810.13
2018-12-09T00:32:37.829Z,99809.38
2018-12-09T00:33:38.363Z,99809.54
2018-12-09T00:34:38.638Z,99808.91
2018-12-09T00:35:39.048Z,99809.08
2018-12-09T00:36:39.749Z,99805.13
2018-12-09T00:37:40.033Z,99805.04
2018-12-09T00:38:40.484Z,99804.53
2018-12-09T00:39:41.220Z,99803.98
2018-12-09T00:40:41.644Z,99804.41
2018-12-09T00:41:42.059Z,99804.25
2018-12-09T00:42:43.646Z,99805.22
2018-12-09T00:43:42.001Z,99805.64
2018-12-09T00:44:43.365Z,99805.86
2018-12-09T00:45:42.514Z,99806.62
2018-12-09T00:46:43.908Z,99806.72
2018-12-09T00:47:44.281Z,99807.43
2018-12-09T00:48:44.579Z,99808.02
2018-12-09T00:49:44.978Z,99807.53
2018-12-09T00:50:47.658Z,99807.74
2018-12-09T00:51:47.916Z,99807.92
2018-12-09T00:52:48.190Z,99807.46
2018-12-09T00:53:48.394Z,99807.89
2018-12-09T00:54:48.771Z,99808.23
2018-12-09T00:55:49.103Z,99807.17
2018-12-09T00:56:49.353Z,99807.00
2018-12-09T00:57:49.672Z,99806.75
2018-12-09T00:58:50.377Z,99805.59
2018-12-09T00:59:50.643Z,99804.62
2018-12-09T01:00:52.055Z,99803.36
2018-12-09T01:01:51.682Z,99802.73
2018-12-09T01:02:51.978Z,99801.31
2018-12-09T01:03:52.259Z,99800.52
2018-12-09T01:04:51.615Z,99799.55
2018-12-09T01:05:53.294Z,99798.96
2018-12-09T01:06:53.846Z,99797.36
2018-12-09T01:07:54.152Z,99796.56
2018-12-09T01:08:54.381Z,99795.40
2018-12-09T01:09:54.631Z,99794.94
2018-12-09T01:10:54.915Z,99792.92
2018-12-09T01:11:55.314Z,99791.28
2018-12-09T01:12:55.599Z,99790.95
2018-12-09T01:13:55.883Z,99790.50
2018-12-09T01:14:56.241Z,99789.63
2018-12-09T01:15:56.729Z,99787.44
2018-12-09T01:16:57.029Z,99787.53
2018-12-09T01:17:06.072Z,99777.55
2018-12-09T01:18:07.447Z,99776.83
2018-12-09T01:19:07.715Z,99776.66
2018-12-09T01:20:08.072Z,99777.01
2018-12-09T01:21:08.050Z,99777.05
2018-12-09T01:22:08.281Z,99776.84
2018-12-09T01:23:08.555Z,99776.69
2018-12-09T01:24:08.821Z,99775.48
2018-12-09T01:25:09.182Z,99775.11
2018-12-09T01:26:08.392Z,99775.23
2018-12-09T01:27:09.729Z,99775.34
2018-12-09T01:28:10.194Z,99774.88
2018-12-09T01:29:10.532Z,99775.56
2018-12-09T01:30:10.800Z,99776.78
2018-12-09T01:31:11.560Z,99777.25
2018-12-09T01:32:11.839Z,99778.28
2018-12-09T01:33:12.172Z,99779.84
2018-12-09T01:34:12.785Z,99781.36
2018-12-09T01:35:13.078Z,99782.84
2018-12-09T01:36:13.364Z,99783.18
2018-12-09T01:37:12.437Z,99783.39
2018-12-09T01:38:13.667Z,99783.23
2018-12-09T01:39:14.124Z,99783.90
2018-12-09T01:40:14.422Z,99784.83
2018-12-09T01:41:14.974Z,99785.77
2018-12-09T01:42:15.505Z,99786.02
2018-12-09T01:43:15.849Z,99787.37
2018-12-09T01:44:16.404Z,99787.70
2018-12-09T01:45:16.761Z,99788.63
2018-12-09T01:46:17.130Z,99789.05
2018-12-09T01:47:16.223Z,99790.23
2018-12-09T01:48:17.585Z,99790.48
2018-12-09T01:49:17.959Z,99791.16
2018-12-09T01:50:18.253Z,99792.41
2018-12-09T01:51:18.707Z,99792.66
2018-12-09T01:52:19.030Z,99793.55
2018-12-09T01:53:19.540Z,99794.64
2018-12-09T01:54:20.074Z,99795.14
2018-12-09T01:55:19.262Z,99795.65
2018-12-09T01:56:20.614Z,99796.91
2018-12-09T01:57:21.438Z,99797.75
2018-12-09T01:58:21.754Z,99799.05
2018-12-09T01:59:22.147Z,99800.48
2018-12-09T02:00:22.464Z,99801.91
2018-12-09T02:01:23.045Z,99803.59
2018-12-09T02:02:22.919Z,99804.86
2018-12-09T02:03:24.786Z,99806.47
2018-12-09T02:04:25.197Z,99806.41
2018-12-09T02:05:25.565Z,99807.69
2018-12-09T02:05:33.682Z,99829.16
2018-12-09T02:06:34.918Z,99828.61
2018-12-09T02:07:35.339Z,99828.87
2018-12-09T02:08:36.148Z,99828.03
2018-12-09T02:09:36.557Z,99828.32
2018-12-09T02:10:35.854Z,99827.66
2018-12-09T02:11:37.946Z,99827.53
2018-12-09T02:12:37.504Z,99827.72
2018-12-09T02:13:38.934Z,99828.35
2018-12-09T02:14:38.175Z,99828.05
2018-12-09T02:15:39.568Z,99828.06
2018-12-09T02:16:40.256Z,99828.37
2018-12-09T02:17:40.833Z,99828.33
2018-12-09T02:18:41.149Z,99828.30
2018-12-09T02:19:41.659Z,99828.23
2018-12-09T02:20:42.116Z,99827.93
2018-12-09T02:21:41.524Z,99827.98
2018-12-09T02:22:43.211Z,99827.53
2018-12-09T02:23:43.272Z,99827.66
2018-12-09T02:24:43.683Z,99827.80
2018-12-09T02:25:44.104Z,99828.06
2018-12-09T02:26:44.531Z,99828.70
2018-12-09T02:27:45.091Z,99828.42
2018-12-09T02:28:45.523Z,99827.97
2018-12-09T02:29:45.869Z,99828.19
2018-12-09T02:30:46.370Z,99828.11
2018-12-09T02:31:45.782Z,99828.08
2018-12-09T02:32:47.402Z,99828.47
2018-12-09T02:33:47.097Z,99829.36
2018-12-09T02:34:48.352Z,99829.84
2018-12-09T02:35:48.775Z,99831.20
2018-12-09T02:36:49.337Z,99832.56
2018-12-09T02:37:50.186Z,99834.22
2018-12-09T02:38:50.770Z,99836.12
2018-12-09T02:39:51.029Z,99838.36
2018-12-09T02:40:51.344Z,99839.93
2018-12-09T02:41:52.149Z,99841.16
2018-12-09T02:42:51.548Z,99842.64
2018-12-09T02:43:52.891Z,99843.78
2018-12-09T02:44:53.176Z,99844.59
2018-12-09T02:45:53.664Z,99845.99
2018-12-09T02:46:54.119Z,99847.64
2018-12-09T02:47:54.449Z,99849.03
2018-12-09T02:48:54.896Z,99850.27
2018-12-09T02:49:55.186Z,99851.33
2018-12-09T02:50:55.919Z,99852.64
2018-12-09T02:51:56.294Z,99853.95
2018-12-09T02:52:55.679Z,99855.50
2018-12-09T02:53:57.611Z,99856.35
2018-12-09T02:54:58.138Z,99857.95
2018-12-09T02:55:57.509Z,99859.34
2018-12-09T02:56:58.798Z,99859.86
2018-12-09T02:57:08.553Z,99879.83
2018-12-09T02:58:10.005Z,99878.91
2018-12-09T02:59:10.725Z,99877.81
2018-12-09T03:00:11.144Z,99876.42
2018-12-09T03:01:12.079Z,99874.25
2018-12-09T03:02:12.691Z,99873.02
2018-12-09T03:03:12.738Z,99871.59
2018-12-09T03:04:13.054Z,99870.26
2018-12-09T03:05:12.434Z,99870.21
2018-12-09T03:06:13.812Z,99870.05
2018-12-09T03:07:14.059Z,99870.09
2018-12-09T03:08:14.344Z,99868.92
2018-12-09T03:09:14.585Z,99868.67
2018-12-09T03:10:14.923Z,99868.13
2018-12-09T03:11:15.321Z,99867.50
2018-12-09T03:12:16.136Z,99866.58
2018-12-09T03:13:16.731Z,99864.60
2018-12-09T03:14:17.107Z,99863.09
2018-12-09T03:15:17.500Z,99861.38
2018-12-09T03:16:16.828Z,99860.88
2018-12-09T03:17:18.170Z,99859.49
2018-12-09T03:18:18.549Z,99859.29
2018-12-09T03:19:18.834Z,99858.91
2018-12-09T03:20:19.131Z,99857.78
2018-12-09T03:21:19.542Z,99858.13
2018-12-09T03:22:19.864Z,99858.09
2018-12-09T03:23:20.146Z,99859.05
2018-12-09T03:24:20.690Z,99859.73
2018-12-09T03:25:21.213Z,99860.84
2018-12-09T03:26:20.599Z,99861.38
2018-12-09T03:27:21.931Z,99862.23
2018-12-09T03:28:22.203Z,99863.95
2018-12-09T03:29:22.521Z,99865.01
2018-12-09T03:30:22.991Z,99865.44
2018-12-09T03:31:23.519Z,99866.45
2018-12-09T03:32:22.730Z,99867.45
2018-12-09T03:33:24.273Z,99868.47
2018-12-09T03:34:24.669Z,99868.72
2018-12-09T03:35:24.971Z,99868.34
2018-12-09T03:36:24.713Z,99868.52
2018-12-09T03:37:24.791Z,99868.66
2018-12-09T03:38:26.346Z,99868.61
2018-12-09T03:39:26.941Z,99868.74
2018-12-09T03:40:27.589Z,99869.21
2018-12-09T03:41:28.050Z,99868.84
2018-12-09T03:42:28.325Z,99868.64
2018-12-09T03:43:28.643Z,99868.98
2018-12-09T03:44:28.922Z,99868.45
2018-12-09T03:45:29.703Z,99867.91
2018-12-09T03:46:29.003Z,99867.58
2018-12-09T03:46:37.034Z,99864.80
2018-12-09T03:47:37.651Z,99864.72
2018-12-09T03:48:39.006Z,99864.55
2018-12-09T03:49:39.389Z,99864.33
2018-12-09T03:50:39.844Z,99864.59
2018-12-09T03:51:40.391Z,99863.75
2018-12-09T03:52:40.690Z,99864.47
2018-12-09T03:53:40.902Z,99864.59
2018-12-09T03:54:41.264Z,99865.20
2018-12-09T03:55:42.771Z,99866.33
2018-12-09T03:56:42.164Z,99866.80
2018-12-09T03:57:41.513Z,99866.72
2018-12-09T03:58:42.763Z,99866.97
2018-12-09T03:59:43.097Z,99867.73
2018-12-09T04:00:43.489Z,99868.27
2018-12-09T04:01:43.868Z,99866.94
2018-12-09T04:02:44.372Z,99867.15
2018-12-09T04:03:44.698Z,99867.36
2018-12-09T04:04:45.203Z,99868.03
2018-12-09T04:05:45.658Z,99869.01
2018-12-09T04:06:46.039Z,99868.55
2018-12-09T04:07:45.387Z,99869.06
2018-12-09T04:08:46.492Z,99868.94
2018-12-09T04:09:46.806Z,99869.02
2018-12-09T04:10:47.110Z,99869.14
2018-12-09T04:11:47.589Z,99868.31
2018-12-09T04:12:47.935Z,99869.08
2018-12-09T04:13:50.824Z,99867.52
2018-12-09T04:14:47.987Z,99867.78
2018-12-09T04:15:49.555Z,99867.78
2018-12-09T04:16:50.061Z,99868.06
2018-12-09T04:17:49.408Z,99868.91
2018-12-09T04:18:50.899Z,99868.66
2018-12-09T04:19:51.274Z,99869.25
2018-12-09T04:20:51.668Z,99868.75
2018-12-09T04:21:52.053Z,99868.78
2018-12-09T04:22:52.306Z,99869.13
2018-12-09T04:23:52.719Z,99869.72
2018-12-09T04:24:53.178Z,99870.64
2018-12-09T04:25:53.558Z,99871.19
2018-12-09T04:26:54.100Z,99871.99
2018-12-09T04:27:53.700Z,99872.50
2018-12-09T04:28:55.006Z,99873.85
2018-12-09T04:29:55.402Z,99875.06
2018-12-09T04:30:55.834Z,99876.25
2018-12-09T04:31:56.229Z,99877.52
2018-12-09T04:32:56.499Z,99877.80
2018-12-09T04:33:56.722Z,99878.73
2018-12-09T04:34:57.057Z,99879.58
2018-12-09T04:35:57.807Z,99880.75
2018-12-09T04:36:06.827Z,99909.21
2018-12-09T04:37:07.143Z,99908.80
2018-12-09T04:38:07.595Z,99908.63
2018-12-09T04:39:08.255Z,99908.41
2018-12-09T04:40:08.727Z,99908.25
2018-12-09T04:41:08.023Z,99907.58
2018-12-09T04:42:09.595Z,99907.48
2018-12-09T04:43:09.953Z,99907.58
2018-12-09T04:44:10.446Z,99907.23
2018-12-09T04:45:10.348Z,99907.02
2018-12-09T04:46:10.736Z,99907.28
2018-12-09T04:47:12.085Z,99907.12
2018-12-09T04:48:12.421Z,99906.56
2018-12-09T04:49:12.758Z,99907.16
2018-12-09T04:50:12.166Z,99905.48
2018-12-09T04:51:13.825Z,99905.86
2018-12-09T04:52:14.249Z,99905.27
2018-12-09T04:53:14.627Z,99905.70
2018-12-09T04:54:14.905Z,99905.74
2018-12-09T04:55:15.489Z,99906.28
2018-12-09T04:56:15.819Z,99906.38
2018-12-09T04:57:16.028Z,99906.84
2018-12-09T04:58:16.365Z,99907.31
2018-12-09T04:59:16.611Z,99908.58
2018-12-09T05:00:15.922Z,99908.70
2018-12-09T05:01:17.293Z,99909.84
2018-12-09T05:02:17.740Z,99910.47
2018-12-09T05:03:18.152Z,99911.23
2018-12-09T05:04:18.398Z,99911.70
2018-12-09T05:05:18.689Z,99912.84
2018-12-09T05:06:19.026Z,99913.64
2018-12-09T05:07:19.391Z,99914.11
2018-12-09T05:08:19.669Z,99915.28
2018-12-09T05:09:19.973Z,99915.58
2018-12-09T05:10:19.310Z,99916.38
2018-12-09T05:11:20.816Z,99917.18
2018-12-09T05:12:21.191Z,99918.28
2018-12-09T05:13:21.628Z,99919.25
2018-12-09T05:14:21.952Z,99920.22
2018-12-09T05:15:22.183Z,99920.34
2018-12-09T05:16:22.448Z,99921.36
2018-12-09T05:17:22.847Z,99921.91
2018-12-09T05:18:23.167Z,99922.25
2018-12-09T05:19:23.992Z,99923.89
2018-12-09T05:20:23.248Z,99924.78
2018-12-09T05:21:24.573Z,99926.42
2018-12-09T05:22:24.889Z,99927.72
2018-12-09T05:23:25.097Z,99929.36
2018-12-09T05:24:25.603Z,99929.83
2018-12-09T05:25:26.006Z,99929.88
2018-12-09T05:26:26.404Z,99930.98
2018-12-09T05:27:26.831Z,99931.77
2018-12-09T05:27:35.685Z,99955.42
2018-12-09T05:28:36.087Z,99955.03
2018-12-09T05:29:36.631Z,99954.78
2018-12-09T05:30:36.907Z,99954.46
2018-12-09T05:31:36.506Z,99954.91
2018-12-09T05:32:38.002Z,99955.84
2018-12-09T05:33:38.896Z,99956.09
2018-12-09T05:34:39.439Z,99956.47
2018-12-09T05:35:40.294Z,99956.05
2018-12-09T05:36:40.751Z,99956.09
2018-12-09T05:37:41.094Z,99956.35
2018-12-09T05:38:41.458Z,99955.80
2018-12-09T05:39:41.886Z,99955.98
2018-12-09T05:40:42.304Z,99955.68
2018-12-09T05:41:41.666Z,99955.94
2018-12-09T05:42:43.343Z,99956.69
2018-12-09T05:43:43.841Z,99957.13
2018-12-09T05:44:44.658Z,99956.99
2018-12-09T05:45:45.117Z,99955.77
2018-12-09T05:46:45.146Z,99955.73
2018-12-09T05:47:46.094Z,99955.99
2018-12-09T05:48:46.367Z,99955.11
2018-12-09T05:49:46.631Z,99954.73
2018-12-09T05:50:47.050Z,99955.03
2018-12-09T05:51:46.360Z,99955.66
2018-12-09T05:52:47.696Z,99955.75
2018-12-09T05:53:48.270Z,99956.13
2018-12-09T05:54:48.672Z,99956.30
2018-12-09T05:55:49.081Z,99955.66
2018-12-09T05:56:49.723Z,99956.26
2018-12-09T05:57:50.172Z,99957.02
2018-12-09T05:58:50.771Z,99956.80
2018-12-09T05:59:51.113Z,99956.97
2018-12-09T06:00:51.640Z,99957.02
2018-12-09T06:01:51.013Z,99956.59
2018-12-09T06:02:52.600Z,99956.92
2018-12-09T06:03:53.025Z,99957.64
2018-12-09T06:04:53.397Z,99958.31
2018-12-09T06:05:53.821Z,99959.06
2018-12-09T06:06:54.186Z,99959.86
2018-12-09T06:07:54.978Z,99960.70
2018-12-09T06:08:55.308Z,99961.25
2018-12-09T06:09:55.712Z,99962.64
2018-12-09T06:10:56.211Z,99963.14
2018-12-09T06:11:55.492Z,99963.94
2018-12-09T06:12:56.895Z,99964.84
2018-12-09T06:13:57.224Z,99965.48
2018-12-09T06:14:57.541Z,99965.61
2018-12-09T06:15:57.937Z,99965.73
2018-12-09T06:16:05.971Z,99966.20
2018-12-09T06:17:07.367Z,99965.80
2018-12-09T06:18:07.763Z,99965.95
2018-12-09T06:19:08.089Z,99966.47
2018-12-09T06:20:08.352Z,99967.38
2018-12-09T06:21:08.668Z,99967.38
2018-12-09T06:22:09.028Z,99968.89
2018-12-09T06:23:08.430Z,99969.19
2018-12-09T06:24:09.827Z,99969.23
2018-12-09T06:25:09.085Z,99969.77
2018-12-09T06:26:10.523Z,99970.31
2018-12-09T06:27:10.843Z,99972.28
2018-12-09T06:28:11.853Z,99973.29
2018-12-09T06:29:12.147Z,99974.50
2018-12-09T06:30:12.493Z,99975.38
2018-12-09T06:31:13.128Z,99976.55
2018-12-09T06:32:13.389Z,99977.85
2018-12-09T06:33:12.871Z,99978.69
2018-12-09T06:34:14.249Z,99979.40
2018-12-09T06:35:14.948Z,99979.94
2018-12-09T06:36:14.881Z,99981.53
2018-12-09T06:37:16.195Z,99982.80
2018-12-09T06:38:16.559Z,99984.34
2018-12-09T06:39:17.235Z,99985.55
2018-12-09T06:40:17.607Z,99986.91
2018-12-09T06:41:18.055Z,99988.11
2018-12-09T06:42:18.422Z,99990.33
2018-12-09T06:43:17.672Z,99990.50
2018-12-09T06:44:18.801Z,99991.04
2018-12-09T06:45:19.153Z,99991.91
2018-12-09T06:46:19.559Z,99993.94
2018-12-09T06:47:20.174Z,99996.25
2018-12-09T06:48:20.515Z,99997.97
2018-12-09T06:49:20.927Z,99999.89
2018-12-09T06:50:21.250Z,100002.04
2018-12-09T06:51:22.104Z,100003.09
2018-12-09T06:52:21.578Z,100004.84
2018-12-09T06:53:22.930Z,100006.95
2018-12-09T06:54:23.272Z,100008.84
2018-12-09T06:55:23.785Z,100010.53
2018-12-09T06:56:24.101Z,100012.16
2018-12-09T06:57:24.462Z,100013.84
2018-12-09T06:58:24.908Z,100015.36
2018-12-09T06:59:25.214Z,100017.04
2018-12-09T07:00:25.538Z,100018.64
2018-12-09T07:01:25.956Z,100021.41
2018-12-09T07:02:26.298Z,100023.09
2018-12-09T07:03:26.626Z,100025.61
2018-12-09T07:04:27.005Z,100028.14
2018-12-09T07:05:27.597Z,100030.33
2018-12-09T07:05:36.454Z,100069.54
2018-12-09T07:06:37.827Z,100068.78
2018-12-09T07:07:38.179Z,100068.19
2018-12-09T07:08:38.498Z,100067.52
2018-12-09T07:09:38.948Z,100067.19
2018-12-09T07:10:39.227Z,100067.19
2018-12-09T07:11:39.620Z,100067.19
2018-12-09T07:12:38.934Z,100067.61
2018-12-09T07:13:40.556Z,100067.44
2018-12-09T07:14:41.018Z,100067.27
2018-12-09T07:15:41.542Z,100067.41
2018-12-09T07:16:41.799Z,100066.89
2018-12-09T07:17:42.042Z,100066.47
2018-12-09T07:18:42.894Z,100066.27
2018-12-09T07:19:43.249Z,100066.26
2018-12-09T07:20:43.559Z,100065.88
2018-12-09T07:21:44.045Z,100066.30
2018-12-09T07:22:43.442Z,100066.33
2018-12-09T07:23:44.802Z,100065.62
2018-12-09T07:24:45.166Z,100066.12
2018-12-09T07:25:45.435Z,100066.75
2018-12-09T07:26:45.752Z,100068.05
2018-12-09T07:27:46.027Z,100068.47
2018-12-09T07:28:46.362Z,100067.83
2018-12-09T07:29:46.623Z,100068.25
2018-12-09T07:30:47.008Z,100068.03
2018-12-09T07:31:47.465Z,100069.12
2018-12-09T07:32:46.719Z,100070.72
2018-12-09T07:33:48.278Z,100071.50
2018-12-09T07:34:48.635Z,100073.02
2018-12-09T07:35:49.073Z,100074.15
2018-12-09T07:36:49.366Z,100075.45
2018-12-09T07:37:49.645Z,100077.00
2018-12-09T07:38:50.123Z,100078.64
2018-12-09T07:39:50.952Z,100080.27
2018-12-09T07:40:51.304Z,100081.66
2018-12-09T07:41:51.135Z,100082.88
2018-12-09T07:42:52.441Z,100083.93
2018-12-09T07:43:52.756Z,100085.91
2018-12-09T07:44:53.026Z,100085.95
2018-12-09T07:45:53.644Z,100086.86
2018-12-09T07:46:54.004Z,100087.73
2018-12-09T07:47:54.255Z,100090.14
2018-12-09T07:48:54.569Z,100091.48
2018-12-09T07:49:54.852Z,100092.62
2018-12-09T07:50:55.179Z,100092.58
2018-12-09T07:51:54.462Z,100094.50
2018-12-09T07:52:56.059Z,100095.64
2018-12-09T07:53:56.428Z,100097.15
2018-12-09T07:54:04.764Z,100118.50
2018-12-09T07:55:06.037Z,100118.08
2018-12-09T07:56:06.394Z,100118.25
2018-12-09T07:57:06.730Z,100118.08
2018-12-09T07:58:07.028Z,100118.33
2018-12-09T07:59:07.277Z,100118.16
2018-12-09T08:00:07.607Z,100118.75
2018-12-09T08:01:07.933Z,100119.09
2018-12-09T08:02:08.337Z,100119.67
2018-12-09T08:03:08.738Z,100120.43
2018-12-09T08:04:09.106Z,100121.36
2018-12-09T08:05:09.527Z,100122.58
2018-12-09T08:06:10.013Z,100122.92
2018-12-09T08:07:14.208Z,100124.02
2018-12-09T08:08:10.662Z,100125.06
2018-12-09T08:09:10.997Z,100126.16
2018-12-09T08:10:10.235Z,100126.95
2018-12-09T08:11:11.613Z,100127.55
2018-12-09T08:12:12.032Z,100128.65
2018-12-09T08:13:12.403Z,100130.08
2018-12-09T08:14:12.805Z,100131.47
2018-12-09T08:15:13.285Z,100133.33
2018-12-09T08:16:13.673Z,100134.80
2018-12-09T08:17:14.298Z,100135.05
2018-12-09T08:18:14.675Z,100136.52
2018-12-09T08:19:15.314Z,100137.58
2018-12-09T08:20:15.609Z,100138.55
2018-12-09T08:21:15.139Z,100138.50
2018-12-09T08:22:16.667Z,100139.98
2018-12-09T08:23:17.025Z,100141.28
2018-12-09T08:24:17.371Z,100143.48
2018-12-09T08:25:17.677Z,100144.61
2018-12-09T08:26:18.212Z,100145.91
2018-12-09T08:27:18.907Z,100146.85
2018-12-09T08:28:19.495Z,100148.23
2018-12-09T08:29:20.058Z,100148.87
2018-12-09T08:30:20.455Z,100149.75
2018-12-09T08:31:20.773Z,100150.64
2018-12-09T08:32:21.163Z,100151.36
2018-12-09T08:33:21.672Z,100151.95
2018-12-09T08:34:22.106Z,100153.00
2018-12-09T08:35:22.463Z,100153.93
2018-12-09T08:36:22.842Z,100154.53
2018-12-09T08:37:23.237Z,100155.12
2018-12-09T08:38:23.590Z,100156.30
2018-12-09T08:39:24.089Z,100157.39
2018-12-09T08:40:24.535Z,100157.86
2018-12-09T08:40:33.474Z,100170.97
2018-12-09T08:41:33.754Z,100171.42
2018-12-09T08:42:34.008Z,100171.92
2018-12-09T08:43:34.353Z,100172.27
2018-12-09T08:44:34.695Z,100172.43
2018-12-09T08:45:35.232Z,100172.59
2018-12-09T08:46:35.356Z,100172.09
2018-12-09T08:47:35.670Z,100172.48
2018-12-09T08:48:35.916Z,100172.65
2018-12-09T08:49:36.329Z,100172.05
2018-12-09T08:50:36.611Z,100172.47
2018-12-09T08:51:37.028Z,100171.63
2018-12-09T08:52:37.306Z,100171.88
2018-12-09T08:53:37.671Z,100171.93
2018-12-09T08:54:38.311Z,100171.67
2018-12-09T08:55:38.639Z,100171.76
2018-12-09T08:56:39.108Z,100171.25
2018-12-09T08:57:39.429Z,100171.33
2018-12-09T08:58:38.614Z,100171.05
2018-12-09T08:59:40.182Z,100171.21
2018-12-09T09:00:40.720Z,100171.43
2018-12-09T09:01:41.678Z,100171.59
2018-12-09T09:02:42.175Z,100171.80
2018-12-09T09:03:42.576Z,100171.46
2018-12-09T09:04:42.835Z,100171.59
2018-12-09T09:05:43.262Z,100172.59
2018-12-09T09:06:43.618Z,100173.40
2018-12-09T09:07:43.907Z,100173.48
2018-12-09T09:08:44.191Z,100172.27
2018-12-09T09:09:44.493Z,100172.34
2018-12-09T09:10:44.808Z,100172.59
2018-12-09T09:11:45.136Z,100172.69
2018-12-09T09:12:45.473Z,100173.69
2018-12-09T09:13:45.792Z,100174.78
2018-12-09T09:14:46.095Z,100173.44
2018-12-09T09:15:46.428Z,100175.08
2018-12-09T09:16:46.783Z,100174.16
2018-12-09T09:17:47.187Z,100174.95
2018-12-09T09:18:47.477Z,100176.30
2018-12-09T09:19:47.808Z,100177.64
2018-12-09T09:20:48.149Z,100179.58
2018-12-09T09:21:48.536Z,100180.54
2018-12-09T09:22:48.935Z,100181.80
2018-12-09T09:23:48.209Z,100182.90
2018-12-09T09:24:49.606Z,100184.03
2018-12-09T09:25:50.103Z,100185.20
2018-12-09T09:26:50.677Z,100186.05
2018-12-09T09:27:01.830Z,100207.36
2018-12-09T09:28:01.816Z,100206.94
2018-12-09T09:29:03.161Z,100206.27
2018-12-09T09:30:03.482Z,100206.10
2018-12-09T09:31:03.792Z,100204.70
2018-12-09T09:32:04.116Z,100203.75
2018-12-09T09:33:04.420Z,100202.91
2018-12-09T09:34:04.796Z,100202.73
2018-12-09T09:35:05.308Z,100202.11
2018-12-09T09:36:05.891Z,100200.34
2018-12-09T09:37:05.211Z,100200.09
2018-12-09T09:38:06.583Z,100199.16
2018-12-09T09:39:06.895Z,100198.70
2018-12-09T09:40:07.223Z,100197.70
2018-12-09T09:41:08.068Z,100197.53
2018-12-09T09:42:08.454Z,100196.86
2018-12-09T09:43:09.002Z,100197.02
2018-12-09T09:44:09.305Z,100195.72
2018-12-09T09:45:09.780Z,100195.12
2018-12-09T09:46:10.494Z,100194.83
2018-12-09T09:47:10.863Z,100194.16
2018-12-09T09:48:11.320Z,100193.78
2018-12-09T09:49:11.647Z,100193.66
2018-12-09T09:50:12.378Z,100193.66
2018-12-09T09:51:11.683Z,100192.77
2018-12-09T09:52:13.026Z,100192.19
2018-12-09T09:53:14.026Z,100192.78
2018-12-09T09:54:14.403Z,100192.48
2018-12-09T09:55:14.803Z,100192.56
2018-12-09T09:56:15.227Z,100192.60
2018-12-09T09:57:15.350Z,100192.95
2018-12-09T09:58:15.871Z,100192.64
2018-12-09T09:59:16.416Z,100192.44
2018-12-09T10:00:16.745Z,100192.69
2018-12-09T10:01:17.101Z,100193.53
2018-12-09T10:02:17.386Z,100192.94
2018-12-09T10:03:25.713Z,100193.06
2018-12-09T10:04:17.235Z,100193.23
2018-12-09T10:05:18.514Z,100192.44
2018-12-09T10:06:19.113Z,100191.42
2018-12-09T10:07:19.494Z,100190.25
2018-12-09T10:08:19.879Z,100191.30
2018-12-09T10:09:20.387Z,100191.93
2018-12-09T10:10:20.735Z,100192.10
2018-12-09T10:11:21.109Z,100191.21
2018-12-09T10:12:21.478Z,100190.58
2018-12-09T10:13:21.801Z,100190.84
2018-12-09T10:14:22.200Z,100190.33
2018-12-09T10:15:22.495Z,100190.38
2018-12-09T10:15:33.859Z,100199.28
2018-12-09T10:16:34.547Z,100198.70
2018-12-09T10:17:34.943Z,100197.95
2018-12-09T10:18:35.319Z,100197.52
2018-12-09T10:19:35.876Z,100197.31
2018-12-09T10:20:36.379Z,100197.59
2018-12-09T10:21:36.701Z,100197.69
2018-12-09T10:22:36.986Z,100198.19
2018-12-09T10:23:37.358Z,100198.56
2018-12-09T10:24:38.102Z,100198.44
2018-12-09T10:25:38.379Z,100199.10
2018-12-09T10:26:38.768Z,100199.06
2018-12-09T10:27:39.164Z,100198.47
2018-12-09T10:28:39.637Z,100198.59
2018-12-09T10:29:39.938Z,100198.80
2018-12-09T10:30:40.225Z,100198.84
2018-12-09T10:31:40.679Z,100198.30
2018-12-09T10:32:41.036Z,100197.66
2018-12-09T10:33:41.480Z,100197.86
2018-12-09T10:34:41.840Z,100198.28
2018-12-09T10:35:42.373Z,100198.20
2018-12-09T10:36:42.825Z,100197.36
2018-12-09T10:37:43.293Z,100196.61
2018-12-09T10:38:43.659Z,100196.69
2018-12-09T10:39:45.033Z,100197.20
2018-12-09T10:40:43.678Z,100197.78
2018-12-09T10:41:45.163Z,100197.02
2018-12-09T10:42:45.588Z,100197.48
2018-12-09T10:43:46.480Z,100197.73
2018-12-09T10:44:46.795Z,100197.12
2018-12-09T10:45:47.107Z,100196.86
2018-12-09T10:46:47.402Z,100196.95
2018-12-09T10:47:47.787Z,100197.75
2018-12-09T10:48:47.979Z,100197.92
2018-12-09T10:49:48.371Z,100198.34
2018-12-09T10:50:48.635Z,100198.34
2018-12-09T10:51:48.897Z,100199.01
2018-12-09T10:52:49.177Z,100199.26
2018-12-09T10:53:49.589Z,100200.02
2018-12-09T10:54:50.063Z,100200.56
2018-12-09T10:55:50.547Z,100201.23
2018-12-09T10:56:51.161Z,100201.36
2018-12-09T10:57:51.653Z,100201.36
2018-12-09T10:58:51.962Z,100201.86
2018-12-09T10:59:52.405Z,100202.03
2018-12-09T11:00:52.715Z,100202.07
2018-12-09T11:01:53.246Z,100202.58
2018-12-09T11:02:01.638Z,100204.11
2018-12-09T11:03:02.952Z,100203.72
2018-12-09T11:04:03.314Z,100203.86
2018-12-09T11:05:03.764Z,100203.86
2018-12-09T11:06:04.141Z,100203.52
2018-12-09T11:07:04.508Z,100202.09
2018-12-09T11:08:04.861Z,100202.25
2018-12-09T11:09:05.372Z,100202.42
2018-12-09T11:10:05.815Z,100202.00
2018-12-09T11:11:06.339Z,100202.51
2018-12-09T11:12:06.958Z,100203.27
2018-12-09T11:13:07.351Z,100202.59
2018-12-09T11:14:07.801Z,100201.97
2018-12-09T11:15:08.152Z,100201.80
2018-12-09T11:16:08.470Z,100201.80
2018-12-09T11:17:08.785Z,100201.59
2018-12-09T11:18:09.297Z,100201.09
2018-12-09T11:19:09.889Z,100201.03
2018-12-09T11:20:10.284Z,100200.53
2018-12-09T11:21:10.591Z,100199.95
2018-12-09T11:22:10.962Z,100199.19
2018-12-09T11:23:11.278Z,100198.86
2018-12-09T11:24:11.643Z,100198.35
2018-12-09T11:25:11.979Z,100198.52
2018-12-09T11:26:12.309Z,100198.02
2018-12-09T11:27:12.652Z,100198.09
2018-12-09T11:28:13.044Z,100197.84
2018-12-09T11:29:13.393Z,100197.56